sensor_id;sensor_type;location;lat;lon;timestamp;pressure;altitude;pressure_sealevel;temperature;humidity
12757;BME280;31601;48.042;12.240;2023-03-26T00:01:24;95749.59;;;10.07;52.64
12757;BME280;31601;48.042;12.240;2023-03-26T00:03:52;95757.00;;;10.03;52.44
12757;BME280;31601;48.042;12.240;2023-03-26T00:06:22;95756.97;;;9.97;52.72
12757;BME280;31601;48.042;12.240;2023-03-26T00:08:52;95752.50;;;9.91;52.54
12757;BME280;31601;48.042;12.240;2023-03-26T00:11:20;95760.00;;;9.94;52.57
12757;BME280;31601;48.042;12.240;2023-03-26T00:13:47;95756.19;;;9.96;52.35
12757;BME280;31601;48.042;12.240;2023-03-26T00:16:16;95756.13;;;9.90;52.37
12757;BME280;31601;48.042;12.240;2023-03-26T00:18:44;95764.13;;;9.81;52.73
12757;BME280;31601;48.042;12.240;2023-03-26T00:21:12;95752.22;;;9.79;52.96
12757;BME280;31601;48.042;12.240;2023-03-26T00:23:39;95750.84;;;9.83;52.86
12757;BME280;31601;48.042;12.240;2023-03-26T00:26:08;95757.38;;;9.94;52.80
12757;BME280;31601;48.042;12.240;2023-03-26T00:28:35;95750.56;;;9.99;53.04
12757;BME280;31601;48.042;12.240;2023-03-26T00:31:04;95741.09;;;10.05;52.86
12757;BME280;31601;48.042;12.240;2023-03-26T00:33:30;95737.91;;;10.10;52.86
12757;BME280;31601;48.042;12.240;2023-03-26T00:35:59;95744.59;;;10.12;52.47
12757;BME280;31601;48.042;12.240;2023-03-26T00:38:27;95731.09;;;10.15;52.78
12757;BME280;31601;48.042;12.240;2023-03-26T00:40:58;95734.56;;;10.23;52.51
12757;BME280;31601;48.042;12.240;2023-03-26T00:43:32;95735.78;;;10.27;52.47
12757;BME280;31601;48.042;12.240;2023-03-26T00:45:58;95733.03;;;10.35;52.10
12757;BME280;31601;48.042;12.240;2023-03-26T00:48:26;95734.03;;;10.34;52.23
12757;BME280;31601;48.042;12.240;2023-03-26T00:50:55;95728.03;;;10.47;52.05
12757;BME280;31601;48.042;12.240;2023-03-26T00:53:22;95725.22;;;10.48;51.93
12757;BME280;31601;48.042;12.240;2023-03-26T00:55:48;95730.72;;;10.53;51.79
12757;BME280;31601;48.042;12.240;2023-03-26T00:58:15;95727.81;;;10.42;51.75
12757;BME280;31601;48.042;12.240;2023-03-26T01:00:46;95732.47;;;10.46;51.76
12757;BME280;31601;48.042;12.240;2023-03-26T01:03:15;95721.00;;;10.47;51.49
12757;BME280;31601;48.042;12.240;2023-03-26T01:05:47;95719.75;;;10.43;51.69
12757;BME280;31601;48.042;12.240;2023-03-26T01:08:22;95722.22;;;10.16;51.99
12757;BME280;31601;48.042;12.240;2023-03-26T01:10:50;95718.19;;;10.20;51.99
12757;BME280;31601;48.042;12.240;2023-03-26T01:13:18;95723.19;;;10.09;52.11
12757;BME280;31601;48.042;12.240;2023-03-26T01:15:48;95716.94;;;10.10;52.21
12757;BME280;31601;48.042;12.240;2023-03-26T01:18:18;95712.63;;;9.95;52.94
12757;BME280;31601;48.042;12.240;2023-03-26T01:20:51;95721.19;;;10.11;52.44
12757;BME280;31601;48.042;12.240;2023-03-26T01:23:28;95714.31;;;10.10;52.60
12757;BME280;31601;48.042;12.240;2023-03-26T01:26:05;95713.63;;;9.94;52.74
12757;BME280;31601;48.042;12.240;2023-03-26T01:28:36;95705.81;;;10.01;52.82
12757;BME280;31601;48.042;12.240;2023-03-26T01:31:08;95713.91;;;10.06;52.65
12757;BME280;31601;48.042;12.240;2023-03-26T01:33:41;95717.09;;;10.01;52.61
12757;BME280;31601;48.042;12.240;2023-03-26T01:36:15;95720.28;;;9.97;53.51
12757;BME280;31601;48.042;12.240;2023-03-26T01:38:47;95720.38;;;10.10;53.18
12757;BME280;31601;48.042;12.240;2023-03-26T01:41:21;95715.78;;;10.19;52.80
12757;BME280;31601;48.042;12.240;2023-03-26T01:43:54;95724.84;;;10.16;52.82
12757;BME280;31601;48.042;12.240;2023-03-26T01:46:24;95726.69;;;10.23;52.86
12757;BME280;31601;48.042;12.240;2023-03-26T01:48:51;95722.25;;;10.23;52.45
12757;BME280;31601;48.042;12.240;2023-03-26T01:51:26;95730.78;;;10.32;52.28
12757;BME280;31601;48.042;12.240;2023-03-26T01:53:54;95719.94;;;10.35;52.49
12757;BME280;31601;48.042;12.240;2023-03-26T01:56:25;95723.34;;;10.35;52.50
12757;BME280;31601;48.042;12.240;2023-03-26T01:59:07;95718.47;;;10.32;52.86
12757;BME280;31601;48.042;12.240;2023-03-26T02:01:42;95718.44;;;10.26;53.39
12757;BME280;31601;48.042;12.240;2023-03-26T02:04:17;95711.19;;;10.28;53.13
12757;BME280;31601;48.042;12.240;2023-03-26T02:06:50;95703.44;;;10.13;53.42
12757;BME280;31601;48.042;12.240;2023-03-26T02:09:24;95707.47;;;10.09;53.59
12757;BME280;31601;48.042;12.240;2023-03-26T02:11:55;95699.72;;;9.94;54.17
12757;BME280;31601;48.042;12.240;2023-03-26T02:14:22;95696.00;;;9.81;54.62
12757;BME280;31601;48.042;12.240;2023-03-26T02:16:48;95697.59;;;9.76;54.36
12757;BME280;31601;48.042;12.240;2023-03-26T02:19:15;95697.34;;;9.71;54.91
12757;BME280;31601;48.042;12.240;2023-03-26T02:21:46;95689.13;;;9.74;54.81
12757;BME280;31601;48.042;12.240;2023-03-26T02:24:13;95687.53;;;9.51;55.33
12757;BME280;31601;48.042;12.240;2023-03-26T02:26:40;95687.75;;;9.28;55.93
12757;BME280;31601;48.042;12.240;2023-03-26T02:29:07;95687.16;;;9.26;56.14
12757;BME280;31601;48.042;12.240;2023-03-26T02:31:34;95696.25;;;9.30;56.01
12757;BME280;31601;48.042;12.240;2023-03-26T02:34:00;95695.38;;;9.23;56.42
12757;BME280;31601;48.042;12.240;2023-03-26T02:36:27;95693.88;;;9.13;56.32
12757;BME280;31601;48.042;12.240;2023-03-26T02:38:54;95684.16;;;9.07;56.69
12757;BME280;31601;48.042;12.240;2023-03-26T02:41:22;95683.38;;;9.07;56.59
12757;BME280;31601;48.042;12.240;2023-03-26T02:43:48;95682.69;;;8.98;56.41
12757;BME280;31601;48.042;12.240;2023-03-26T02:46:16;95685.66;;;8.95;56.71
12757;BME280;31601;48.042;12.240;2023-03-26T02:48:42;95684.97;;;8.86;56.98
12757;BME280;31601;48.042;12.240;2023-03-26T02:51:09;95678.13;;;8.85;57.16
12757;BME280;31601;48.042;12.240;2023-03-26T02:53:35;95681.03;;;8.75;57.08
12757;BME280;31601;48.042;12.240;2023-03-26T02:56:04;95681.78;;;8.69;57.10
12757;BME280;31601;48.042;12.240;2023-03-26T02:58:30;95675.38;;;8.72;57.21
12757;BME280;31601;48.042;12.240;2023-03-26T03:00:57;95676.19;;;8.72;57.49
12757;BME280;31601;48.042;12.240;2023-03-26T03:03:28;95667.34;;;8.73;57.39
12757;BME280;31601;48.042;12.240;2023-03-26T03:05:55;95663.38;;;8.77;57.45
12757;BME280;31601;48.042;12.240;2023-03-26T03:08:24;95652.16;;;8.84;57.37
12757;BME280;31601;48.042;12.240;2023-03-26T03:10:56;95649.38;;;8.85;57.52
12757;BME280;31601;48.042;12.240;2023-03-26T03:13:23;95650.34;;;8.84;57.71
12757;BME280;31601;48.042;12.240;2023-03-26T03:15:49;95654.59;;;8.85;57.37
12757;BME280;31601;48.042;12.240;2023-03-26T03:18:16;95650.16;;;8.86;57.34
12757;BME280;31601;48.042;12.240;2023-03-26T03:20:43;95655.03;;;8.89;57.34
12757;BME280;31601;48.042;12.240;2023-03-26T03:23:10;95644.56;;;8.89;57.43
12757;BME280;31601;48.042;12.240;2023-03-26T03:25:36;95637.09;;;8.86;57.30
12757;BME280;31601;48.042;12.240;2023-03-26T03:28:05;95638.53;;;8.88;57.24
12757;BME280;31601;48.042;12.240;2023-03-26T03:30:32;95627.97;;;8.82;57.16
12757;BME280;31601;48.042;12.240;2023-03-26T03:32:58;95628.72;;;8.75;57.80
12757;BME280;31601;48.042;12.240;2023-03-26T03:35:27;95622.09;;;8.73;57.65
12757;BME280;31601;48.042;12.240;2023-03-26T03:37:55;95629.09;;;8.72;57.63
12757;BME280;31601;48.042;12.240;2023-03-26T03:40:21;95627.03;;;8.68;57.79
12757;BME280;31601;48.042;12.240;2023-03-26T03:42:48;95626.25;;;8.67;58.28
12757;BME280;31601;48.042;12.240;2023-03-26T03:45:14;95622.66;;;8.68;58.18
12757;BME280;31601;48.042;12.240;2023-03-26T03:47:40;95616.03;;;8.72;58.30
12757;BME280;31601;48.042;12.240;2023-03-26T03:50:08;95610.97;;;8.71;58.24
12757;BME280;31601;48.042;12.240;2023-03-26T03:52:35;95613.78;;;8.69;57.98
12757;BME280;31601;48.042;12.240;2023-03-26T03:55:03;95608.75;;;8.68;58.31
12757;BME280;31601;48.042;12.240;2023-03-26T03:57:30;95606.97;;;8.68;58.31
12757;BME280;31601;48.042;12.240;2023-03-26T03:59:57;95610.38;;;8.69;58.44
12757;BME280;31601;48.042;12.240;2023-03-26T04:02:24;95613.78;;;8.69;58.34
12757;BME280;31601;48.042;12.240;2023-03-26T04:04:54;95610.38;;;8.69;58.35
12757;BME280;31601;48.042;12.240;2023-03-26T04:07:22;95605.94;;;8.69;58.46
12757;BME280;31601;48.042;12.240;2023-03-26T04:09:48;95599.72;;;8.70;58.73
12757;BME280;31601;48.042;12.240;2023-03-26T04:12:16;95598.59;;;8.80;58.50
12757;BME280;31601;48.042;12.240;2023-03-26T04:14:43;95599.84;;;8.84;58.66
12757;BME280;31601;48.042;12.240;2023-03-26T04:17:09;95599.09;;;8.90;58.30
12757;BME280;31601;48.042;12.240;2023-03-26T04:19:37;95604.31;;;8.90;58.35
12757;BME280;31601;48.042;12.240;2023-03-26T04:22:04;95601.91;;;8.88;59.01
12757;BME280;31601;48.042;12.240;2023-03-26T04:24:31;95591.84;;;8.92;58.51
12757;BME280;31601;48.042;12.240;2023-03-26T04:26:58;95591.09;;;8.98;58.19
12757;BME280;31601;48.042;12.240;2023-03-26T04:29:27;95589.09;;;9.00;58.55
12757;BME280;31601;48.042;12.240;2023-03-26T04:31:56;95589.34;;;9.05;58.52
12757;BME280;31601;48.042;12.240;2023-03-26T04:34:31;95589.97;;;9.07;58.72
12757;BME280;31601;48.042;12.240;2023-03-26T04:36:59;95587.78;;;9.11;58.72
12757;BME280;31601;48.042;12.240;2023-03-26T04:39:26;95586.38;;;9.08;58.53
12757;BME280;31601;48.042;12.240;2023-03-26T04:41:53;95580.97;;;9.17;58.47
12757;BME280;31601;48.042;12.240;2023-03-26T04:44:19;95576.16;;;9.20;58.20
12757;BME280;31601;48.042;12.240;2023-03-26T04:46:47;95572.94;;;9.18;58.63
12757;BME280;31601;48.042;12.240;2023-03-26T04:49:14;95575.66;;;9.31;58.36
12757;BME280;31601;48.042;12.240;2023-03-26T04:51:40;95577.88;;;9.35;58.50
12757;BME280;31601;48.042;12.240;2023-03-26T04:54:09;95580.91;;;9.38;58.39
12757;BME280;31601;48.042;12.240;2023-03-26T04:56:39;95570.28;;;9.46;58.12
12757;BME280;31601;48.042;12.240;2023-03-26T04:59:12;95570.16;;;9.55;57.86
12757;BME280;31601;48.042;12.240;2023-03-26T05:01:39;95571.53;;;9.57;57.64
12757;BME280;31601;48.042;12.240;2023-03-26T05:04:07;95569.38;;;9.61;57.32
12757;BME280;31601;48.042;12.240;2023-03-26T05:06:33;95557.69;;;9.63;57.43
12757;BME280;31601;48.042;12.240;2023-03-26T05:09:02;95560.53;;;9.68;57.37
12757;BME280;31601;48.042;12.240;2023-03-26T05:11:28;95562.97;;;9.70;57.91
12757;BME280;31601;48.042;12.240;2023-03-26T05:13:55;95559.97;;;9.80;57.58
12757;BME280;31601;48.042;12.240;2023-03-26T05:16:21;95562.78;;;9.78;58.24
12757;BME280;31601;48.042;12.240;2023-03-26T05:18:49;95552.13;;;9.86;58.56
12757;BME280;31601;48.042;12.240;2023-03-26T05:21:17;95549.38;;;9.95;58.21
12757;BME280;31601;48.042;12.240;2023-03-26T05:23:43;95550.16;;;9.89;58.86
12757;BME280;31601;48.042;12.240;2023-03-26T05:26:09;95549.56;;;10.00;58.71
12757;BME280;31601;48.042;12.240;2023-03-26T05:28:36;95541.69;;;9.93;59.38
12757;BME280;31601;48.042;12.240;2023-03-26T05:31:03;95534.63;;;9.94;59.65
12757;BME280;31601;48.042;12.240;2023-03-26T05:33:29;95532.03;;;9.94;59.71
12757;BME280;31601;48.042;12.240;2023-03-26T05:35:59;95527.41;;;10.02;60.06
12757;BME280;31601;48.042;12.240;2023-03-26T05:38:28;95526.59;;;10.02;59.97
12757;BME280;31601;48.042;12.240;2023-03-26T05:40:58;95519.31;;;9.91;60.43
12757;BME280;31601;48.042;12.240;2023-03-26T05:43:25;95526.19;;;10.05;60.24
12757;BME280;31601;48.042;12.240;2023-03-26T05:45:51;95528.81;;;10.05;60.50
12757;BME280;31601;48.042;12.240;2023-03-26T05:48:18;95519.34;;;10.04;60.69
12757;BME280;31601;48.042;12.240;2023-03-26T05:50:46;95521.19;;;10.10;60.69
12757;BME280;31601;48.042;12.240;2023-03-26T05:53:13;95512.69;;;10.08;60.83
12757;BME280;31601;48.042;12.240;2023-03-26T05:55:42;95512.50;;;10.10;60.95
12757;BME280;31601;48.042;12.240;2023-03-26T05:58:10;95500.22;;;10.10;60.76
12757;BME280;31601;48.042;12.240;2023-03-26T06:00:36;95509.88;;;10.10;61.09
12757;BME280;31601;48.042;12.240;2023-03-26T06:03:03;95496.38;;;10.06;60.93
12757;BME280;31601;48.042;12.240;2023-03-26T06:05:30;95491.94;;;10.07;60.49
12757;BME280;31601;48.042;12.240;2023-03-26T06:07:58;95489.34;;;10.13;60.18
12757;BME280;31601;48.042;12.240;2023-03-26T06:10:24;95482.88;;;10.16;60.10
12757;BME280;31601;48.042;12.240;2023-03-26T06:12:52;95477.03;;;10.07;60.03
12757;BME280;31601;48.042;12.240;2023-03-26T06:15:19;95474.41;;;10.20;60.07
12757;BME280;31601;48.042;12.240;2023-03-26T06:17:45;95472.19;;;10.17;60.23
12757;BME280;31601;48.042;12.240;2023-03-26T06:20:12;95469.03;;;10.35;59.57
12757;BME280;31601;48.042;12.240;2023-03-26T06:22:39;95455.91;;;10.35;59.24
12757;BME280;31601;48.042;12.240;2023-03-26T06:25:06;95462.16;;;10.54;58.61
12757;BME280;31601;48.042;12.240;2023-03-26T06:27:32;95458.53;;;10.55;58.55
12757;BME280;31601;48.042;12.240;2023-03-26T06:30:00;95463.16;;;10.67;58.39
12757;BME280;31601;48.042;12.240;2023-03-26T06:32:26;95456.50;;;10.64;58.29
12757;BME280;31601;48.042;12.240;2023-03-26T06:34:53;95453.06;;;10.64;58.37
12757;BME280;31601;48.042;12.240;2023-03-26T06:37:19;95455.69;;;10.64;58.22
12757;BME280;31601;48.042;12.240;2023-03-26T06:39:45;95462.34;;;10.60;58.30
12757;BME280;31601;48.042;12.240;2023-03-26T06:42:12;95464.56;;;10.63;58.48
12757;BME280;31601;48.042;12.240;2023-03-26T06:44:38;95458.50;;;10.69;58.21
12757;BME280;31601;48.042;12.240;2023-03-26T06:47:06;95451.25;;;10.71;58.51
12757;BME280;31601;48.042;12.240;2023-03-26T06:49:32;95443.19;;;10.72;58.60
12757;BME280;31601;48.042;12.240;2023-03-26T06:51:59;95441.75;;;10.83;58.50
12757;BME280;31601;48.042;12.240;2023-03-26T06:54:27;95440.31;;;10.87;58.52
12757;BME280;31601;48.042;12.240;2023-03-26T06:56:53;95442.34;;;10.99;58.34
12757;BME280;31601;48.042;12.240;2023-03-26T06:59:20;95441.50;;;11.05;58.38
12757;BME280;31601;48.042;12.240;2023-03-26T07:01:46;95442.06;;;11.14;58.18
12757;BME280;31601;48.042;12.240;2023-03-26T07:04:14;95437.81;;;11.19;58.00
12757;BME280;31601;48.042;12.240;2023-03-26T07:06:40;95427.72;;;11.23;57.85
12757;BME280;31601;48.042;12.240;2023-03-26T07:09:07;95427.50;;;11.24;57.19
12757;BME280;31601;48.042;12.240;2023-03-26T07:11:33;95431.72;;;11.39;56.69
12757;BME280;31601;48.042;12.240;2023-03-26T07:14:00;95428.72;;;11.28;56.50
12757;BME280;31601;48.042;12.240;2023-03-26T07:16:26;95423.88;;;11.25;55.72
12757;BME280;31601;48.042;12.240;2023-03-26T07:18:52;95424.25;;;11.36;55.33
12757;BME280;31601;48.042;12.240;2023-03-26T07:21:21;95422.03;;;11.33;55.73
12757;BME280;31601;48.042;12.240;2023-03-26T07:23:48;95411.50;;;11.39;55.74
12757;BME280;31601;48.042;12.240;2023-03-26T07:26:24;95408.50;;;11.36;55.87
12757;BME280;31601;48.042;12.240;2023-03-26T07:28:55;95401.41;;;11.36;55.92
12757;BME280;31601;48.042;12.240;2023-03-26T07:31:28;95400.81;;;11.34;56.10
12757;BME280;31601;48.042;12.240;2023-03-26T07:34:05;95403.44;;;11.34;56.52
12757;BME280;31601;48.042;12.240;2023-03-26T07:36:42;95392.38;;;11.25;57.42
12757;BME280;31601;48.042;12.240;2023-03-26T07:39:22;95378.16;;;11.40;57.20
12757;BME280;31601;48.042;12.240;2023-03-26T07:42:00;95376.97;;;11.36;58.30
12757;BME280;31601;48.042;12.240;2023-03-26T07:44:39;95369.91;;;11.36;58.83
12757;BME280;31601;48.042;12.240;2023-03-26T07:47:19;95364.44;;;11.38;59.12
12757;BME280;31601;48.042;12.240;2023-03-26T07:49:51;95356.88;;;11.55;58.82
12757;BME280;31601;48.042;12.240;2023-03-26T07:52:20;95351.78;;;11.60;58.57
12757;BME280;31601;48.042;12.240;2023-03-26T07:54:47;95333.72;;;11.70;58.69
12757;BME280;31601;48.042;12.240;2023-03-26T07:57:19;95323.13;;;11.83;58.56
12757;BME280;31601;48.042;12.240;2023-03-26T07:59:52;95316.84;;;11.85;58.54
12757;BME280;31601;48.042;12.240;2023-03-26T08:05:14;95284.94;;;12.31;57.97
12757;BME280;31601;48.042;12.240;2023-03-26T08:07:55;95274.91;;;12.22;56.59
12757;BME280;31601;48.042;12.240;2023-03-26T08:10:31;95268.63;;;12.41;56.17
12757;BME280;31601;48.042;12.240;2023-03-26T08:13:08;95264.47;;;12.52;56.42
12757;BME280;31601;48.042;12.240;2023-03-26T08:15:45;95261.63;;;12.53;55.57
12757;BME280;31601;48.042;12.240;2023-03-26T08:18:25;95250.31;;;12.34;55.57
12757;BME280;31601;48.042;12.240;2023-03-26T08:20:57;95242.69;;;12.63;55.09
12757;BME280;31601;48.042;12.240;2023-03-26T08:23:32;95252.50;;;12.38;54.61
12757;BME280;31601;48.042;12.240;2023-03-26T08:26:04;95261.69;;;12.10;55.67
12757;BME280;31601;48.042;12.240;2023-03-26T08:28:43;95263.25;;;12.11;55.04
12757;BME280;31601;48.042;12.240;2023-03-26T08:31:14;95253.19;;;12.26;54.64
12757;BME280;31601;48.042;12.240;2023-03-26T08:33:42;95247.72;;;12.09;54.49
12757;BME280;31601;48.042;12.240;2023-03-26T08:36:09;95243.28;;;12.28;53.97
12757;BME280;31601;48.042;12.240;2023-03-26T08:38:37;95228.66;;;12.32;54.58
12757;BME280;31601;48.042;12.240;2023-03-26T08:44:42;95215.28;;;12.34;53.63
12757;BME280;31601;48.042;12.240;2023-03-26T08:47:57;95196.97;;;12.46;54.64
12757;BME280;31601;48.042;12.240;2023-03-26T08:51:00;95189.94;;;12.40;54.47
12757;BME280;31601;48.042;12.240;2023-03-26T08:53:58;95183.28;;;12.56;54.19
12757;BME280;31601;48.042;12.240;2023-03-26T08:56:38;95189.75;;;12.71;53.47
12757;BME280;31601;48.042;12.240;2023-03-26T08:59:33;95189.06;;;12.95;51.93
12757;BME280;31601;48.042;12.240;2023-03-26T09:02:30;95190.63;;;12.84;50.64
12757;BME280;31601;48.042;12.240;2023-03-26T09:08:34;95185.97;;;13.10;51.10
12757;BME280;31601;48.042;12.240;2023-03-26T09:11:19;95182.00;;;13.19;51.60
12757;BME280;31601;48.042;12.240;2023-03-26T09:14:07;95185.75;;;13.41;51.80
12757;BME280;31601;48.042;12.240;2023-03-26T09:17:07;95186.44;;;13.60;52.34
12757;BME280;31601;48.042;12.240;2023-03-26T09:20:06;95178.78;;;13.83;50.78
12757;BME280;31601;48.042;12.240;2023-03-26T09:22:52;95167.75;;;14.09;50.91
12757;BME280;31601;48.042;12.240;2023-03-26T09:25:55;95171.63;;;14.30;49.80
12757;BME280;31601;48.042;12.240;2023-03-26T09:28:55;95176.59;;;14.56;48.51
12757;BME280;31601;48.042;12.240;2023-03-26T09:31:44;95181.28;;;14.65;48.45
12757;BME280;31601;48.042;12.240;2023-03-26T09:34:26;95181.34;;;14.82;48.38
12757;BME280;31601;48.042;12.240;2023-03-26T09:37:09;95184.81;;;14.83;48.51
12757;BME280;31601;48.042;12.240;2023-03-26T09:39:47;95192.00;;;14.88;48.84
12757;BME280;31601;48.042;12.240;2023-03-26T09:42:23;95191.09;;;14.82;49.02
12757;BME280;31601;48.042;12.240;2023-03-26T09:45:29;95185.50;;;14.78;48.90
12757;BME280;31601;48.042;12.240;2023-03-26T09:48:17;95181.06;;;14.67;48.24
12757;BME280;31601;48.042;12.240;2023-03-26T09:50:55;95172.25;;;14.49;48.48
12757;BME280;31601;48.042;12.240;2023-03-26T09:53:39;95181.94;;;14.32;48.95
12757;BME280;31601;48.042;12.240;2023-03-26T09:56:24;95180.56;;;14.18;49.55
12757;BME280;31601;48.042;12.240;2023-03-26T09:59:21;95173.59;;;14.11;50.05
12757;BME280;31601;48.042;12.240;2023-03-26T10:01:59;95185.28;;;14.04;49.96
12757;BME280;31601;48.042;12.240;2023-03-26T10:04:55;95184.72;;;14.02;50.06
12757;BME280;31601;48.042;12.240;2023-03-26T10:07:55;95182.69;;;13.92;50.08
12757;BME280;31601;48.042;12.240;2023-03-26T10:10:34;95169.47;;;13.45;49.74
12757;BME280;31601;48.042;12.240;2023-03-26T10:13:16;95165.69;;;12.56;51.46
12757;BME280;31601;48.042;12.240;2023-03-26T10:16:01;95162.00;;;12.27;53.46
12757;BME280;31601;48.042;12.240;2023-03-26T10:18:39;95161.75;;;12.28;52.54
12757;BME280;31601;48.042;12.240;2023-03-26T10:21:15;95166.78;;;12.48;54.56
12757;BME280;31601;48.042;12.240;2023-03-26T10:24:00;95141.88;;;12.32;56.19
12757;BME280;31601;48.042;12.240;2023-03-26T10:26:41;95155.19;;;12.19;56.77
12757;BME280;31601;48.042;12.240;2023-03-26T10:29:25;95165.09;;;12.35;56.90
12757;BME280;31601;48.042;12.240;2023-03-26T10:32:04;95171.78;;;12.68;56.21
12757;BME280;31601;48.042;12.240;2023-03-26T10:34:48;95159.72;;;12.91;56.66
12757;BME280;31601;48.042;12.240;2023-03-26T10:37:24;95162.81;;;12.58;56.99
12757;BME280;31601;48.042;12.240;2023-03-26T10:43:09;95151.94;;;12.84;56.07
12757;BME280;31601;48.042;12.240;2023-03-26T10:45:53;95138.03;;;13.07;55.32
12757;BME280;31601;48.042;12.240;2023-03-26T10:48:31;95138.69;;;13.03;54.69
12757;BME280;31601;48.042;12.240;2023-03-26T10:53:56;95145.66;;;13.51;53.91
12757;BME280;31601;48.042;12.240;2023-03-26T10:56:27;95141.19;;;13.40;54.47
12757;BME280;31601;48.042;12.240;2023-03-26T10:58:55;95135.41;;;13.31;54.27
12757;BME280;31601;48.042;12.240;2023-03-26T11:01:37;95159.66;;;13.10;55.33
12757;BME280;31601;48.042;12.240;2023-03-26T11:04:16;95143.41;;;13.13;54.74
12757;BME280;31601;48.042;12.240;2023-03-26T11:06:53;95151.53;;;12.99;55.49
12757;BME280;31601;48.042;12.240;2023-03-26T11:09:31;95156.75;;;12.87;56.47
12757;BME280;31601;48.042;12.240;2023-03-26T11:12:08;95163.44;;;12.71;57.61
12757;BME280;31601;48.042;12.240;2023-03-26T11:14:42;95176.09;;;12.63;58.20
12757;BME280;31601;48.042;12.240;2023-03-26T11:17:17;95186.50;;;12.58;58.71
12757;BME280;31601;48.042;12.240;2023-03-26T11:19:49;95185.53;;;12.52;59.05
12757;BME280;31601;48.042;12.240;2023-03-26T11:22:26;95168.91;;;12.40;60.46
12757;BME280;31601;48.042;12.240;2023-03-26T11:28:07;95155.41;;;12.36;61.00
12757;BME280;31601;48.042;12.240;2023-03-26T11:30:41;95145.53;;;12.31;61.43
12757;BME280;31601;48.042;12.240;2023-03-26T11:33:16;95146.13;;;12.33;62.64
12757;BME280;31601;48.042;12.240;2023-03-26T11:35:46;95150.91;;;12.55;62.33
12757;BME280;31601;48.042;12.240;2023-03-26T11:38:20;95138.16;;;12.70;62.12
12757;BME280;31601;48.042;12.240;2023-03-26T11:40:51;95140.22;;;12.68;61.77
12757;BME280;31601;48.042;12.240;2023-03-26T11:43:22;95128.97;;;12.61;62.40
12757;BME280;31601;48.042;12.240;2023-03-26T11:45:50;95119.63;;;12.77;61.94
12757;BME280;31601;48.042;12.240;2023-03-26T11:48:22;95115.34;;;12.95;62.33
12757;BME280;31601;48.042;12.240;2023-03-26T11:50:52;95116.97;;;13.19;61.77
12757;BME280;31601;48.042;12.240;2023-03-26T11:53:26;95103.69;;;13.14;61.14
12757;BME280;31601;48.042;12.240;2023-03-26T11:55:57;95087.88;;;13.02;60.69
12757;BME280;31601;48.042;12.240;2023-03-26T11:58:29;95092.31;;;12.90;62.19
12757;BME280;31601;48.042;12.240;2023-03-26T12:01:00;95091.25;;;13.33;61.47
12757;BME280;31601;48.042;12.240;2023-03-26T12:03:28;95086.19;;;13.43;60.66
12757;BME280;31601;48.042;12.240;2023-03-26T12:05:57;95081.94;;;13.31;59.55
12757;BME280;31601;48.042;12.240;2023-03-26T12:08:32;95088.69;;;13.26;59.63
12757;BME280;31601;48.042;12.240;2023-03-26T12:11:02;95087.97;;;12.84;60.13
12757;BME280;31601;48.042;12.240;2023-03-26T12:13:33;95090.38;;;12.97;60.02
12757;BME280;31601;48.042;12.240;2023-03-26T12:16:08;95102.72;;;12.85;59.92
12757;BME280;31601;48.042;12.240;2023-03-26T12:18:36;95108.56;;;12.87;59.77
12757;BME280;31601;48.042;12.240;2023-03-26T12:21:06;95108.88;;;12.79;60.34
12757;BME280;31601;48.042;12.240;2023-03-26T12:23:43;95097.44;;;12.73;60.98
12757;BME280;31601;48.042;12.240;2023-03-26T12:26:14;95107.13;;;12.72;61.32
12757;BME280;31601;48.042;12.240;2023-03-26T12:28:46;95103.72;;;12.72;61.65
12757;BME280;31601;48.042;12.240;2023-03-26T12:31:14;95111.38;;;12.74;61.79
12757;BME280;31601;48.042;12.240;2023-03-26T12:33:43;95114.47;;;12.70;62.05
12757;BME280;31601;48.042;12.240;2023-03-26T12:36:19;95109.09;;;12.65;62.36
12757;BME280;31601;48.042;12.240;2023-03-26T12:38:48;95112.00;;;12.57;62.34
12757;BME280;31601;48.042;12.240;2023-03-26T12:41:16;95112.47;;;12.54;62.14
12757;BME280;31601;48.042;12.240;2023-03-26T12:43:44;95126.50;;;12.17;62.78
12757;BME280;31601;48.042;12.240;2023-03-26T12:46:25;95110.19;;;12.27;63.00
12757;BME280;31601;48.042;12.240;2023-03-26T12:48:54;95094.75;;;12.61;63.22
12757;BME280;31601;48.042;12.240;2023-03-26T12:51:33;95097.97;;;13.05;62.99
12757;BME280;31601;48.042;12.240;2023-03-26T12:54:16;95090.78;;;13.60;62.21
12757;BME280;31601;48.042;12.240;2023-03-26T12:56:53;95076.69;;;14.07;60.94
12757;BME280;31601;48.042;12.240;2023-03-26T12:59:44;95062.34;;;14.43;59.74
12757;BME280;31601;48.042;12.240;2023-03-26T13:02:28;95054.53;;;14.48;57.59
12757;BME280;31601;48.042;12.240;2023-03-26T13:05:13;95047.81;;;14.58;57.61
12757;BME280;31601;48.042;12.240;2023-03-26T13:07:52;95043.59;;;14.57;56.56
12757;BME280;31601;48.042;12.240;2023-03-26T13:10:35;95041.25;;;14.43;56.44
12757;BME280;31601;48.042;12.240;2023-03-26T13:13:17;95045.56;;;14.49;56.76
12757;BME280;31601;48.042;12.240;2023-03-26T13:15:49;95041.09;;;14.50;56.43
12757;BME280;31601;48.042;12.240;2023-03-26T13:18:23;95034.44;;;14.30;56.24
12757;BME280;31601;48.042;12.240;2023-03-26T13:20:55;95037.66;;;14.21;56.58
12757;BME280;31601;48.042;12.240;2023-03-26T13:23:32;95040.94;;;13.99;57.23
12757;BME280;31601;48.042;12.240;2023-03-26T13:26:12;95033.56;;;13.84;57.56
12757;BME280;31601;48.042;12.240;2023-03-26T13:28:47;95028.41;;;13.77;58.13
12757;BME280;31601;48.042;12.240;2023-03-26T13:31:20;95028.25;;;13.96;58.25
12757;BME280;31601;48.042;12.240;2023-03-26T13:33:57;95018.63;;;13.90;58.03
12757;BME280;31601;48.042;12.240;2023-03-26T13:36:32;95029.75;;;13.92;57.56
12757;BME280;31601;48.042;12.240;2023-03-26T13:39:13;95030.69;;;13.86;57.35